Time;durP1;ratioP1;P1;durP2;ratioP2;P2;SDS_P1;SDS_P2;PMS_P1;PMS_P2;Temp;Humidity;BMP_temperature;BMP_pressure;BME280_temperature;BME280_humidity;BME280_pressure;Samples;Min_cycle;Max_cycle;Signal;HPM_P1;HPM_P2
2022/12/12 00:01:50;;;;;;;96.70;25.90;;;;;;;;;;5071305;28;20228;-74
2022/12/12 00:04:17;;;;;;;92.38;24.40;;;;;;;;;;5071172;28;20209;-74
2022/12/12 00:06:46;;;;;;;89.15;24.27;;;;;;;;;;5071502;28;20205;-74
2022/12/12 00:09:13;;;;;;;92.60;26.35;;;;;;;;;;5071135;28;20209;-74
2022/12/12 00:11:41;;;;;;;94.15;26.73;;;;;;;;;;5071153;28;20197;-74
2022/12/12 00:14:08;;;;;;;96.93;28.48;;;;;;;;;;5071263;28;20211;-74
2022/12/12 00:16:35;;;;;;;98.15;28.48;;;;;;;;;;5071148;28;20708;-74
2022/12/12 00:19:02;;;;;;;96.45;26.88;;;;;;;;;;5070716;28;20244;-74
2022/12/12 00:21:30;;;;;;;101.07;28.05;;;;;;;;;;5071274;28;20225;-74
2022/12/12 00:23:58;;;;;;;95.03;26.27;;;;;;;;;;5071150;28;20209;-74
2022/12/12 00:26:26;;;;;;;94.38;25.20;;;;;;;;;;5071266;28;20213;-74
2022/12/12 00:28:54;;;;;;;92.75;25.88;;;;;;;;;;5073373;28;20209;-74
2022/12/12 00:31:21;;;;;;;92.00;26.00;;;;;;;;;;5074780;28;20225;-74
2022/12/12 00:33:49;;;;;;;94.55;26.80;;;;;;;;;;5074749;28;20205;-74
2022/12/12 00:36:16;;;;;;;90.82;24.40;;;;;;;;;;5074955;28;20205;-74
2022/12/12 00:38:43;;;;;;;99.10;25.65;;;;;;;;;;5074077;28;20211;-74
2022/12/12 00:41:12;;;;;;;95.00;25.30;;;;;;;;;;5074430;28;20225;-74
2022/12/12 00:43:39;;;;;;;92.40;24.70;;;;;;;;;;5074597;28;20296;-74
2022/12/12 00:46:07;;;;;;;93.03;25.88;;;;;;;;;;5074292;28;20226;-74
2022/12/12 00:48:34;;;;;;;95.68;26.27;;;;;;;;;;5074098;28;20703;-74
2022/12/12 00:51:06;;;;;;;91.07;24.55;;;;;;;;;;5074169;28;20221;-74
2022/12/12 00:53:34;;;;;;;91.10;24.90;;;;;;;;;;5074272;28;20678;-74
2022/12/12 00:56:01;;;;;;;91.45;25.40;;;;;;;;;;5074181;28;20216;-74
2022/12/12 00:58:30;;;;;;;96.32;25.67;;;;;;;;;;5074107;28;20209;-74
2022/12/12 01:01:05;;;;;;;88.72;22.65;;;;;;;;;;5074046;28;20226;-74
2022/12/12 01:03:32;;;;;;;91.93;24.83;;;;;;;;;;5074461;28;20206;-74
2022/12/12 01:05:59;;;;;;;94.30;26.58;;;;;;;;;;5073971;28;20212;-74
2022/12/12 01:08:26;;;;;;;95.90;25.75;;;;;;;;;;5074361;28;20653;-74
2022/12/12 01:10:53;;;;;;;95.72;25.80;;;;;;;;;;5073792;28;20229;-74
2022/12/12 01:13:20;;;;;;;94.22;25.52;;;;;;;;;;5074124;28;20582;-74
2022/12/12 01:15:49;;;;;;;94.90;25.40;;;;;;;;;;5073820;28;20677;-74
2022/12/12 01:18:17;;;;;;;104.15;26.65;;;;;;;;;;5073757;28;20263;-74
2022/12/12 01:20:44;;;;;;;95.72;26.40;;;;;;;;;;5073305;28;20319;-74
2022/12/12 01:23:11;;;;;;;95.18;24.23;;;;;;;;;;5073874;28;20247;-74
2022/12/12 01:25:38;;;;;;;88.90;23.40;;;;;;;;;;5073343;28;20681;-75
2022/12/12 01:28:06;;;;;;;100.68;28.00;;;;;;;;;;5073533;28;20211;-74
2022/12/12 01:30:33;;;;;;;98.50;27.65;;;;;;;;;;5073235;28;20231;-74
2022/12/12 01:33:02;;;;;;;102.55;27.23;;;;;;;;;;5073520;28;20211;-74
2022/12/12 01:35:30;;;;;;;97.82;26.55;;;;;;;;;;5073397;28;20642;-75
2022/12/12 01:37:57;;;;;;;100.68;27.23;;;;;;;;;;5073249;28;20212;-74
2022/12/12 01:40:25;;;;;;;93.47;26.17;;;;;;;;;;5072142;28;20701;-74
2022/12/12 01:42:52;;;;;;;97.97;27.95;;;;;;;;;;5073491;28;20228;-74
2022/12/12 01:45:38;;;;;;;95.68;28.20;;;;;;;;;;5073251;28;20227;-74
2022/12/12 01:48:06;;;;;;;97.93;26.13;;;;;;;;;;5073161;28;20209;-74
2022/12/12 01:50:33;;;;;;;96.07;26.23;;;;;;;;;;5073245;28;20231;-74
2022/12/12 01:53:00;;;;;;;97.05;25.60;;;;;;;;;;5073048;28;20205;-74
2022/12/12 01:55:28;;;;;;;92.75;27.23;;;;;;;;;;5073215;28;20209;-74
2022/12/12 01:57:55;;;;;;;96.25;25.67;;;;;;;;;;5073275;28;20205;-74
2022/12/12 02:00:22;;;;;;;94.07;25.08;;;;;;;;;;5072687;28;20264;-74
2022/12/12 02:02:51;;;;;;;97.63;25.90;;;;;;;;;;5072800;28;20231;-74
2022/12/12 02:05:23;;;;;;;91.95;24.83;;;;;;;;;;5073113;28;20209;-74
2022/12/12 02:07:51;;;;;;;91.82;24.13;;;;;;;;;;5073185;28;20462;-74
2022/12/12 02:10:18;;;;;;;98.72;27.98;;;;;;;;;;5072582;28;20225;-74
2022/12/12 02:12:45;;;;;;;88.68;23.85;;;;;;;;;;5072813;28;20204;-74
2022/12/12 02:15:12;;;;;;;91.22;24.63;;;;;;;;;;5072592;28;20588;-74
2022/12/12 02:17:47;;;;;;;95.97;25.00;;;;;;;;;;5072885;28;20219;-74
2022/12/12 02:20:36;;;;;;;96.28;23.13;;;;;;;;;;5072323;28;20664;-74
2022/12/12 02:23:23;;;;;;;96.65;26.75;;;;;;;;;;5072476;28;20229;-74
2022/12/12 02:26:00;;;;;;;94.15;25.40;;;;;;;;;;5067301;28;20300;-74
2022/12/12 02:28:40;;;;;;;96.03;26.02;;;;;;;;;;5072448;28;20216;-75
2022/12/12 02:31:13;;;;;;;95.60;24.77;;;;;;;;;;5072037;28;20220;-74
2022/12/12 02:33:46;;;;;;;92.82;26.55;;;;;;;;;;5072183;28;20215;-74
2022/12/12 02:36:14;;;;;;;91.57;24.13;;;;;;;;;;5072520;28;20190;-74
2022/12/12 02:38:47;;;;;;;90.95;24.63;;;;;;;;;;5071864;28;20215;-74
2022/12/12 02:41:16;;;;;;;100.47;29.45;;;;;;;;;;5072010;28;20225;-74
2022/12/12 02:43:45;;;;;;;89.38;22.80;;;;;;;;;;5072280;28;20719;-74
2022/12/12 02:46:18;;;;;;;98.82;24.05;;;;;;;;;;5071900;28;20215;-74
2022/12/12 02:48:47;;;;;;;93.05;26.50;;;;;;;;;;5071773;28;20302;-74
2022/12/12 02:51:15;;;;;;;90.45;22.70;;;;;;;;;;5071416;28;20231;-74
2022/12/12 02:53:43;;;;;;;92.13;23.88;;;;;;;;;;5072004;28;20219;-74
2022/12/12 02:56:30;;;;;;;95.28;24.05;;;;;;;;;;5072358;28;20208;-74
2022/12/12 02:58:58;;;;;;;86.78;22.08;;;;;;;;;;5071333;28;20211;-74
2022/12/12 03:01:29;;;;;;;88.20;22.60;;;;;;;;;;5072089;28;20225;-74
2022/12/12 03:09:41;;;;;;;90.70;23.55;;;;;;;;;;5071333;28;20216;-74
2022/12/12 03:12:10;;;;;;;90.35;24.25;;;;;;;;;;5071987;28;20589;-74
2022/12/12 03:14:47;;;;;;;94.45;25.73;;;;;;;;;;5071697;28;20209;-74
2022/12/12 03:17:18;;;;;;;89.80;23.55;;;;;;;;;;5071725;28;20209;-74
2022/12/12 03:19:48;;;;;;;90.68;24.55;;;;;;;;;;5070951;28;20239;-74
2022/12/12 03:22:19;;;;;;;89.50;23.25;;;;;;;;;;5071645;28;20602;-73
2022/12/12 03:24:50;;;;;;;89.32;22.08;;;;;;;;;;5071753;28;20292;-74
2022/12/12 03:27:19;;;;;;;91.13;21.88;;;;;;;;;;5071445;28;20207;-73
2022/12/12 03:29:50;;;;;;;90.13;21.65;;;;;;;;;;5071121;28;20228;-74
2022/12/12 03:32:19;;;;;;;90.68;22.83;;;;;;;;;;5071460;28;20201;-74
2022/12/12 03:34:48;;;;;;;97.65;23.02;;;;;;;;;;5071665;28;20205;-74
2022/12/12 03:37:19;;;;;;;93.75;24.05;;;;;;;;;;5071708;28;20209;-74
2022/12/12 03:39:48;;;;;;;90.25;21.52;;;;;;;;;;5071221;28;20225;-74
2022/12/12 03:42:19;;;;;;;87.70;22.73;;;;;;;;;;5071330;28;20704;-74
2022/12/12 03:44:48;;;;;;;90.55;21.80;;;;;;;;;;5071419;28;20213;-74
2022/12/12 03:47:19;;;;;;;90.15;23.92;;;;;;;;;;5071579;28;20722;-74
2022/12/12 03:49:49;;;;;;;94.43;23.77;;;;;;;;;;5071347;28;20231;-74
2022/12/12 03:52:18;;;;;;;92.22;24.60;;;;;;;;;;5071469;28;20295;-74
2022/12/12 03:54:47;;;;;;;90.22;22.98;;;;;;;;;;5071469;28;20215;-75
2022/12/12 03:57:19;;;;;;;88.60;22.48;;;;;;;;;;5070739;28;20205;-74
2022/12/12 03:59:49;;;;;;;92.35;24.60;;;;;;;;;;5070925;28;20229;-74
2022/12/12 04:02:20;;;;;;;97.10;22.88;;;;;;;;;;5071616;28;20220;-75
2022/12/12 04:04:49;;;;;;;98.55;24.33;;;;;;;;;;5075207;28;20215;-74
2022/12/12 04:07:18;;;;;;;99.18;26.17;;;;;;;;;;5075051;28;20296;-75
2022/12/12 04:15:36;;;;;;;95.88;24.50;;;;;;;;;;5075047;28;20780;-75
2022/12/12 04:18:13;;;;;;;92.93;23.50;;;;;;;;;;5074762;28;20215;-74
2022/12/12 04:23:32;;;;;;;95.70;24.80;;;;;;;;;;5074751;28;20235;-74
2022/12/12 04:28:55;;;;;;;87.43;21.40;;;;;;;;;;5074286;28;20239;-75
2022/12/12 04:31:25;;;;;;;96.60;24.13;;;;;;;;;;5074672;28;20225;-74
2022/12/12 04:33:55;;;;;;;94.75;26.73;;;;;;;;;;5074796;28;20201;-75
2022/12/12 04:36:24;;;;;;;101.82;24.42;;;;;;;;;;5074483;28;20431;-75
2022/12/12 04:38:51;;;;;;;97.85;24.55;;;;;;;;;;5073774;28;20581;-75
2022/12/12 04:41:20;;;;;;;95.50;26.52;;;;;;;;;;5074648;28;20239;-74
2022/12/12 04:43:47;;;;;;;93.28;24.15;;;;;;;;;;5074264;28;20686;-75
2022/12/12 04:46:16;;;;;;;96.97;23.63;;;;;;;;;;5074731;28;20281;-75
2022/12/12 04:48:46;;;;;;;94.72;25.45;;;;;;;;;;5074214;28;20211;-75
2022/12/12 04:51:15;;;;;;;93.55;26.75;;;;;;;;;;5074155;28;20228;-75
2022/12/12 04:53:46;;;;;;;96.28;25.85;;;;;;;;;;5074427;28;20243;-74
2022/12/12 04:56:14;;;;;;;92.35;23.67;;;;;;;;;;5074431;28;20231;-75
2022/12/12 04:58:42;;;;;;;95.80;25.52;;;;;;;;;;5073947;28;20209;-75
2022/12/12 05:01:10;;;;;;;93.40;24.05;;;;;;;;;;5074292;28;20225;-74
2022/12/12 05:03:41;;;;;;;92.75;24.10;;;;;;;;;;5073824;28;20221;-75
2022/12/12 05:06:11;;;;;;;95.47;24.70;;;;;;;;;;5074424;28;20207;-75
2022/12/12 05:08:41;;;;;;;96.30;24.90;;;;;;;;;;5073375;28;20295;-74
2022/12/12 05:11:08;;;;;;;95.30;22.30;;;;;;;;;;5073789;28;20742;-75
2022/12/12 05:13:36;;;;;;;98.85;25.50;;;;;;;;;;5073736;28;20227;-75
2022/12/12 05:16:07;;;;;;;97.20;26.42;;;;;;;;;;5073768;28;20216;-75
2022/12/12 05:18:34;;;;;;;93.43;25.17;;;;;;;;;;5073275;28;20216;-74
2022/12/12 05:21:01;;;;;;;96.65;27.27;;;;;;;;;;5073754;28;20231;-74
2022/12/12 05:23:28;;;;;;;96.03;25.13;;;;;;;;;;5073552;28;20221;-74
2022/12/12 05:25:57;;;;;;;99.60;25.95;;;;;;;;;;5073602;28;20223;-75
2022/12/12 05:28:24;;;;;;;90.60;25.25;;;;;;;;;;5073531;28;20236;-74
2022/12/12 05:30:51;;;;;;;98.10;27.10;;;;;;;;;;5073492;28;20225;-75
2022/12/12 05:33:18;;;;;;;94.82;25.30;;;;;;;;;;5073802;28;20216;-74
2022/12/12 05:35:45;;;;;;;97.20;25.00;;;;;;;;;;5073522;28;20688;-74
2022/12/12 05:38:12;;;;;;;92.93;24.20;;;;;;;;;;5073740;28;20201;-74
2022/12/12 05:40:40;;;;;;;96.90;26.27;;;;;;;;;;5073062;28;20247;-74
2022/12/12 05:43:08;;;;;;;95.18;27.25;;;;;;;;;;5073420;28;20229;-74
2022/12/12 05:45:35;;;;;;;92.97;25.63;;;;;;;;;;5073307;28;20299;-74
2022/12/12 05:48:02;;;;;;;98.80;26.77;;;;;;;;;;5073300;28;20311;-75
2022/12/12 05:50:29;;;;;;;90.75;25.02;;;;;;;;;;5072979;28;20279;-75
2022/12/12 05:52:57;;;;;;;97.38;26.73;;;;;;;;;;5073608;28;20685;-75
2022/12/12 05:55:24;;;;;;;101.57;25.73;;;;;;;;;;5073363;28;20211;-75
2022/12/12 05:57:51;;;;;;;92.07;25.27;;;;;;;;;;5073364;28;20575;-74
2022/12/12 06:00:20;;;;;;;90.18;24.77;;;;;;;;;;5072563;28;20240;-74
2022/12/12 06:02:47;;;;;;;95.35;25.02;;;;;;;;;;5072797;28;20709;-74
2022/12/12 06:05:14;;;;;;;93.53;26.25;;;;;;;;;;5072888;28;20209;-74
2022/12/12 06:07:41;;;;;;;95.60;27.02;;;;;;;;;;5072875;28;20647;-75
2022/12/12 06:10:09;;;;;;;96.05;27.35;;;;;;;;;;5072313;28;20229;-74
2022/12/12 06:12:36;;;;;;;97.70;26.10;;;;;;;;;;5072508;28;20288;-74
2022/12/12 06:15:04;;;;;;;89.80;25.02;;;;;;;;;;5072770;28;20582;-74
2022/12/12 06:17:32;;;;;;;92.88;26.27;;;;;;;;;;5072836;28;20205;-74
2022/12/12 06:19:59;;;;;;;94.30;26.75;;;;;;;;;;5072157;28;20574;-74
2022/12/12 06:22:26;;;;;;;97.25;27.65;;;;;;;;;;5072608;28;20211;-74
2022/12/12 06:24:54;;;;;;;93.85;26.20;;;;;;;;;;5071885;28;20559;-75
2022/12/12 06:27:21;;;;;;;103.22;29.20;;;;;;;;;;5072103;28;20208;-74
2022/12/12 06:29:48;;;;;;;100.45;27.20;;;;;;;;;;5072340;28;20225;-74
2022/12/12 06:32:15;;;;;;;91.53;25.98;;;;;;;;;;5072433;28;20715;-75
2022/12/12 06:34:43;;;;;;;95.18;27.17;;;;;;;;;;5072421;28;20215;-74
2022/12/12 06:37:10;;;;;;;100.40;27.23;;;;;;;;;;5072420;28;20208;-75
2022/12/12 06:39:38;;;;;;;92.50;24.98;;;;;;;;;;5071863;28;20221;-75
2022/12/12 06:42:05;;;;;;;103.75;28.67;;;;;;;;;;5072268;28;20287;-75
2022/12/12 06:44:32;;;;;;;93.35;26.63;;;;;;;;;;5072366;28;20221;-75
2022/12/12 06:47:00;;;;;;;97.78;27.38;;;;;;;;;;5072042;28;20692;-75
2022/12/12 06:49:27;;;;;;;93.70;26.38;;;;;;;;;;5071630;28;20205;-74
2022/12/12 06:51:55;;;;;;;95.47;26.38;;;;;;;;;;5072054;28;20220;-75
2022/12/12 06:54:22;;;;;;;95.88;26.70;;;;;;;;;;5072217;28;20211;-74
2022/12/12 06:56:49;;;;;;;91.78;24.85;;;;;;;;;;5072276;28;20243;-74
2022/12/12 06:59:17;;;;;;;98.28;25.40;;;;;;;;;;5071518;28;20201;-74
2022/12/12 07:01:44;;;;;;;98.60;26.90;;;;;;;;;;5071973;28;20201;-74
2022/12/12 07:04:11;;;;;;;97.10;26.95;;;;;;;;;;5071827;28;20312;-76
2022/12/12 07:06:39;;;;;;;99.65;27.95;;;;;;;;;;5071743;28;20213;-74
2022/12/12 07:09:07;;;;;;;94.63;25.52;;;;;;;;;;5071441;28;20208;-74
2022/12/12 07:11:35;;;;;;;92.30;24.48;;;;;;;;;;5071925;28;20209;-74
2022/12/12 07:14:04;;;;;;;93.80;23.60;;;;;;;;;;5072025;28;20205;-74
2022/12/12 07:16:31;;;;;;;93.15;24.52;;;;;;;;;;5071850;28;20703;-74
2022/12/12 07:18:58;;;;;;;90.50;25.30;;;;;;;;;;5071799;28;20622;-77
2022/12/12 07:21:26;;;;;;;94.72;25.15;;;;;;;;;;5071598;28;20227;-77
2022/12/12 07:23:53;;;;;;;92.82;24.38;;;;;;;;;;5071754;28;20229;-77
2022/12/12 07:26:23;;;;;;;89.55;24.42;;;;;;;;;;5072084;28;20643;-76
2022/12/12 07:28:51;;;;;;;87.28;22.70;;;;;;;;;;5071261;28;20209;-77
2022/12/12 07:31:19;;;;;;;88.75;22.00;;;;;;;;;;5071596;28;20252;-77
2022/12/12 07:33:47;;;;;;;94.85;24.88;;;;;;;;;;5071414;28;20197;-74
2022/12/12 07:36:14;;;;;;;92.03;24.38;;;;;;;;;;5071720;28;20296;-74
2022/12/12 07:38:41;;;;;;;92.25;23.63;;;;;;;;;;5073725;28;20205;-75
2022/12/12 07:41:10;;;;;;;96.35;25.00;;;;;;;;;;5075542;28;20229;-76
2022/12/12 07:43:39;;;;;;;94.43;25.40;;;;;;;;;;5075421;28;20225;-76
2022/12/12 07:46:06;;;;;;;95.43;26.10;;;;;;;;;;5075805;28;20209;-75
2022/12/12 07:48:34;;;;;;;98.35;24.42;;;;;;;;;;5074803;28;20240;-74
2022/12/12 07:51:01;;;;;;;93.78;25.35;;;;;;;;;;5075229;28;20313;-75
2022/12/12 07:53:29;;;;;;;98.22;25.60;;;;;;;;;;5075274;28;20407;-75
2022/12/12 07:55:56;;;;;;;94.15;23.92;;;;;;;;;;5075705;28;20689;-74
2022/12/12 07:58:23;;;;;;;93.47;25.20;;;;;;;;;;5075155;28;20205;-75
2022/12/12 08:00:52;;;;;;;87.20;24.00;;;;;;;;;;5074815;28;20739;-75
2022/12/12 08:03:19;;;;;;;89.65;23.70;;;;;;;;;;5074998;28;20750;-75
2022/12/12 08:05:46;;;;;;;95.60;23.90;;;;;;;;;;5075401;28;20205;-74
2022/12/12 08:08:13;;;;;;;92.70;24.40;;;;;;;;;;5075126;28;20619;-74
2022/12/12 08:10:40;;;;;;;88.55;24.27;;;;;;;;;;5074521;28;20221;-74
2022/12/12 08:13:08;;;;;;;91.90;25.50;;;;;;;;;;5075023;28;20296;-74
2022/12/12 08:15:35;;;;;;;87.07;24.00;;;;;;;;;;5075142;28;20203;-74
2022/12/12 08:18:03;;;;;;;90.47;22.98;;;;;;;;;;5075091;28;20207;-74
2022/12/12 08:20:30;;;;;;;87.05;24.40;;;;;;;;;;5074614;28;20225;-74
2022/12/12 08:22:59;;;;;;;93.78;24.70;;;;;;;;;;5074788;28;20201;-74
2022/12/12 08:25:26;;;;;;;92.05;23.75;;;;;;;;;;5074929;28;20209;-74
2022/12/12 08:27:53;;;;;;;87.47;23.60;;;;;;;;;;5074615;28;20208;-74
2022/12/12 08:30:20;;;;;;;91.68;23.70;;;;;;;;;;5074457;28;20237;-74
2022/12/12 08:32:47;;;;;;;89.15;24.17;;;;;;;;;;5074458;28;20248;-74
2022/12/12 08:35:16;;;;;;;89.63;23.38;;;;;;;;;;5074683;28;20205;-74
2022/12/12 08:37:43;;;;;;;93.32;24.80;;;;;;;;;;5074415;28;20566;-74
2022/12/12 08:40:11;;;;;;;91.43;24.42;;;;;;;;;;5073894;28;20228;-74
2022/12/12 08:42:38;;;;;;;92.03;23.10;;;;;;;;;;5074706;28;20571;-74
2022/12/12 08:45:06;;;;;;;90.53;22.73;;;;;;;;;;5074318;28;20712;-74
2022/12/12 08:47:33;;;;;;;88.63;23.77;;;;;;;;;;5074620;28;20277;-74
2022/12/12 08:50:00;;;;;;;91.40;24.42;;;;;;;;;;5073534;28;20318;-74
2022/12/12 08:52:28;;;;;;;89.30;22.77;;;;;;;;;;5074318;28;20212;-74
2022/12/12 08:54:55;;;;;;;97.40;24.35;;;;;;;;;;5074189;28;20201;-74
2022/12/12 08:57:22;;;;;;;92.97;24.33;;;;;;;;;;5074538;28;20216;-74
2022/12/12 08:59:50;;;;;;;89.15;25.02;;;;;;;;;;5073582;28;20220;-74
2022/12/12 09:02:17;;;;;;;88.18;22.65;;;;;;;;;;5074280;28;20211;-74
2022/12/12 09:04:44;;;;;;;92.15;23.67;;;;;;;;;;5074287;28;20235;-74
2022/12/12 09:07:11;;;;;;;90.25;24.70;;;;;;;;;;5073944;28;20221;-74
2022/12/12 09:09:39;;;;;;;92.40;23.50;;;;;;;;;;5073332;28;20231;-74
2022/12/12 09:12:07;;;;;;;86.32;22.42;;;;;;;;;;5074150;28;20205;-74
2022/12/12 09:14:34;;;;;;;86.30;21.50;;;;;;;;;;5073904;28;20198;-74
2022/12/12 09:17:01;;;;;;;90.30;24.25;;;;;;;;;;5074005;28;20201;-74
2022/12/12 09:19:28;;;;;;;93.07;25.02;;;;;;;;;;5073168;28;20225;-74
2022/12/12 09:21:55;;;;;;;85.82;22.40;;;;;;;;;;5073712;28;20306;-74
2022/12/12 09:24:24;;;;;;;84.72;20.92;;;;;;;;;;5073229;28;20225;-74
2022/12/12 09:26:52;;;;;;;89.55;24.15;;;;;;;;;;5073557;28;20328;-74
2022/12/12 09:29:19;;;;;;;88.70;23.85;;;;;;;;;;5073261;28;20220;-74
2022/12/12 09:31:46;;;;;;;83.93;20.67;;;;;;;;;;5073679;28;20587;-74
2022/12/12 09:34:14;;;;;;;90.63;23.27;;;;;;;;;;5073515;28;20197;-74
2022/12/12 09:36:41;;;;;;;86.75;21.50;;;;;;;;;;5073318;28;20209;-74
2022/12/12 09:39:10;;;;;;;90.68;23.40;;;;;;;;;;5073184;28;20201;-74
2022/12/12 09:41:37;;;;;;;89.88;23.45;;;;;;;;;;5073474;28;20224;-74
2022/12/12 09:44:06;;;;;;;85.20;22.17;;;;;;;;;;5073329;28;20225;-74
2022/12/12 09:46:36;;;;;;;85.70;22.00;;;;;;;;;;5073336;28;20238;-74
2022/12/12 09:49:08;;;;;;;88.45;22.00;;;;;;;;;;5072703;28;20608;-74
2022/12/12 09:51:36;;;;;;;86.78;22.50;;;;;;;;;;5073386;28;20209;-74
2022/12/12 09:54:03;;;;;;;85.70;23.25;;;;;;;;;;5073102;28;20204;-74
2022/12/12 09:56:34;;;;;;;87.30;23.50;;;;;;;;;;5072875;28;20209;-74
2022/12/12 09:59:04;;;;;;;86.40;22.23;;;;;;;;;;5072526;28;20208;-74
2022/12/12 10:01:35;;;;;;;90.65;21.23;;;;;;;;;;5071977;28;20228;-74
2022/12/12 10:04:06;;;;;;;91.45;22.60;;;;;;;;;;5072653;28;20697;-74
2022/12/12 10:06:35;;;;;;;89.20;23.92;;;;;;;;;;5072633;28;20241;-74
2022/12/12 10:09:06;;;;;;;92.45;24.67;;;;;;;;;;5071855;28;20730;-74
2022/12/12 10:11:51;;;;;;;84.60;22.45;;;;;;;;;;5072425;28;20213;-74
2022/12/12 10:14:20;;;;;;;81.45;20.50;;;;;;;;;;5064243;28;20215;-75
2022/12/12 10:16:49;;;;;;;83.90;23.45;;;;;;;;;;5071687;28;20582;-76
2022/12/12 10:19:19;;;;;;;85.40;22.52;;;;;;;;;;5071395;28;20201;-75
2022/12/12 10:21:48;;;;;;;87.10;19.65;;;;;;;;;;5071571;28;20575;-75
2022/12/12 10:24:20;;;;;;;85.40;20.60;;;;;;;;;;5071772;28;20228;-74
2022/12/12 10:26:47;;;;;;;79.90;21.10;;;;;;;;;;5072367;28;20558;-75
2022/12/12 10:29:17;;;;;;;83.60;20.25;;;;;;;;;;5071604;28;20844;-75
2022/12/12 10:31:46;;;;;;;80.73;20.90;;;;;;;;;;5071875;28;20682;-75
2022/12/12 10:34:21;;;;;;;81.23;20.60;;;;;;;;;;5072041;28;20820;-76
2022/12/12 10:36:57;;;;;;;84.67;21.23;;;;;;;;;;5071835;28;20973;-75
2022/12/12 10:39:27;;;;;;;80.60;19.00;;;;;;;;;;5071330;28;20451;-75
2022/12/12 10:41:57;;;;;;;83.80;19.70;;;;;;;;;;5072540;28;20816;-75
2022/12/12 10:44:30;;;;;;;80.10;18.85;;;;;;;;;;5072431;28;20485;-75
2022/12/12 10:47:00;;;;;;;83.57;19.40;;;;;;;;;;5072069;28;20296;-75
2022/12/12 10:49:28;;;;;;;81.63;19.30;;;;;;;;;;5070792;28;20639;-75
2022/12/12 10:51:56;;;;;;;79.47;18.70;;;;;;;;;;5072159;28;20209;-75
2022/12/12 10:54:26;;;;;;;82.50;19.03;;;;;;;;;;5072246;28;20821;-75
2022/12/12 10:57:10;;;;;;;79.00;20.30;;;;;;;;;;5071980;28;20966;-75
2022/12/12 10:59:42;;;;;;;76.50;17.70;;;;;;;;;;5071371;28;20473;-75
2022/12/12 11:02:22;;;;;;;84.97;19.93;;;;;;;;;;5071805;28;20448;-75
2022/12/12 11:04:57;;;;;;;80.57;17.80;;;;;;;;;;5071445;28;20483;-76
2022/12/12 11:07:25;;;;;;;82.17;19.87;;;;;;;;;;5071676;28;20455;-77
2022/12/12 11:09:52;;;;;;;78.60;19.83;;;;;;;;;;5071065;28;20980;-76
2022/12/12 11:12:19;;;;;;;80.73;17.40;;;;;;;;;;5071445;28;20459;-77
2022/12/12 11:14:48;;;;;;;81.00;16.67;;;;;;;;;;5071664;28;20453;-75
2022/12/12 11:17:23;;;;;;;74.50;16.63;;;;;;;;;;5071911;28;20444;-75
2022/12/12 11:19:52;;;;;;;74.67;17.17;;;;;;;;;;5070547;28;20482;-75
2022/12/12 11:22:20;;;;;;;75.50;16.67;;;;;;;;;;5071808;28;20454;-74
2022/12/12 11:24:48;;;;;;;75.50;16.73;;;;;;;;;;5071445;28;20479;-73
2022/12/12 11:27:20;;;;;;;74.77;16.27;;;;;;;;;;5071665;28;20455;-73
2022/12/12 11:29:48;;;;;;;79.30;19.43;;;;;;;;;;5070937;28;20490;-75
2022/12/12 11:32:15;;;;;;;77.03;18.47;;;;;;;;;;5071435;28;20451;-75
2022/12/12 11:34:45;;;;;;;77.10;17.00;;;;;;;;;;5071111;28;20457;-76
2022/12/12 11:37:16;;;;;;;73.33;17.07;;;;;;;;;;5070775;28;20454;-76
2022/12/12 11:39:44;;;;;;;73.87;17.00;;;;;;;;;;5070677;28;20472;-75
2022/12/12 11:42:20;;;;;;;76.10;18.50;;;;;;;;;;5071493;28;20451;-76
2022/12/12 11:44:48;;;;;;;77.77;19.17;;;;;;;;;;5071488;28;20483;-76
2022/12/12 11:47:20;;;;;;;76.03;19.23;;;;;;;;;;5071493;28;20498;-76
2022/12/12 11:49:48;;;;;;;80.00;20.93;;;;;;;;;;5070790;28;20474;-76
2022/12/12 11:52:20;;;;;;;74.80;17.10;;;;;;;;;;5071649;28;20974;-76
2022/12/12 11:54:47;;;;;;;73.13;17.90;;;;;;;;;;5071555;28;20809;-76
2022/12/12 11:57:21;;;;;;;74.77;17.70;;;;;;;;;;5071039;28;20451;-76
2022/12/12 11:59:59;;;;;;;74.80;18.20;;;;;;;;;;5070481;28;20482;-76
2022/12/12 12:02:41;;;;;;;78.57;19.17;;;;;;;;;;5071243;28;20525;-76
2022/12/12 12:05:17;;;;;;;78.60;19.10;;;;;;;;;;5058133;28;20487;-75
2022/12/12 12:07:53;;;;;;;77.30;18.87;;;;;;;;;;5071140;28;20846;-76
2022/12/12 12:10:24;;;;;;;77.60;18.60;;;;;;;;;;5070611;28;20479;-76
2022/12/12 12:12:57;;;;;;;75.23;17.77;;;;;;;;;;5071566;28;20810;-76
2022/12/12 12:15:28;;;;;;;82.30;19.63;;;;;;;;;;5071471;28;20458;-76
2022/12/12 12:18:03;;;;;;;78.20;18.30;;;;;;;;;;5071108;28;20454;-76
2022/12/12 12:20:36;;;;;;;78.80;20.00;;;;;;;;;;5070513;28;20533;-76
2022/12/12 12:23:12;;;;;;;78.40;19.03;;;;;;;;;;5071133;28;20496;-75
2022/12/12 12:25:45;;;;;;;77.93;18.80;;;;;;;;;;5074898;28;20489;-74
2022/12/12 12:28:27;;;;;;;77.37;20.33;;;;;;;;;;5074759;28;20451;-74
2022/12/12 12:30:58;;;;;;;76.93;20.30;;;;;;;;;;5074301;28;20467;-74
2022/12/12 12:33:31;;;;;;;75.40;19.30;;;;;;;;;;5074718;28;20490;-74
2022/12/12 12:36:04;;;;;;;76.53;19.63;;;;;;;;;;5074599;28;20439;-74
2022/12/12 12:38:41;;;;;;;72.43;18.20;;;;;;;;;;5074095;28;20983;-76
2022/12/12 12:41:23;;;;;;;74.20;17.90;;;;;;;;;;5074789;28;20467;-76
2022/12/12 12:43:59;;;;;;;80.53;18.70;;;;;;;;;;5072507;28;20804;-75
2022/12/12 12:46:34;;;;;;;76.50;19.57;;;;;;;;;;5074433;28;20858;-74
2022/12/12 12:49:05;;;;;;;76.83;20.23;;;;;;;;;;5074141;28;20446;-74
2022/12/12 12:51:34;;;;;;;78.77;20.37;;;;;;;;;;5074371;28;20471;-74
2022/12/12 12:54:05;;;;;;;96.53;31.47;;;;;;;;;;5074620;28;20546;-74
2022/12/12 12:56:33;;;;;;;87.43;25.13;;;;;;;;;;5074819;28;20454;-74
2022/12/12 12:59:03;;;;;;;82.13;23.60;;;;;;;;;;5073663;28;20994;-73
2022/12/12 13:01:32;;;;;;;75.73;18.23;;;;;;;;;;5074322;28;20469;-73
2022/12/12 13:04:02;;;;;;;75.60;19.30;;;;;;;;;;5074174;28;20453;-76
2022/12/12 13:06:35;;;;;;;76.43;18.53;;;;;;;;;;5074161;28;20493;-76
2022/12/12 13:09:07;;;;;;;77.50;19.97;;;;;;;;;;5073475;28;20533;-76
2022/12/12 13:11:35;;;;;;;74.37;18.50;;;;;;;;;;5073993;28;20939;-76
2022/12/12 13:14:07;;;;;;;76.40;20.57;;;;;;;;;;5074045;28;20450;-74
2022/12/12 13:16:34;;;;;;;76.43;20.30;;;;;;;;;;5074039;28;20797;-73
2022/12/12 13:19:04;;;;;;;74.73;17.73;;;;;;;;;;5073132;28;20451;-73
2022/12/12 13:21:33;;;;;;;72.93;17.80;;;;;;;;;;5073509;28;21015;-73
2022/12/12 13:24:02;;;;;;;75.57;18.70;;;;;;;;;;5073941;28;20447;-74
2022/12/12 13:26:34;;;;;;;77.50;19.63;;;;;;;;;;5073838;28;20495;-74
2022/12/12 13:29:02;;;;;;;76.17;19.23;;;;;;;;;;5073072;28;20447;-74
2022/12/12 13:31:38;;;;;;;76.67;18.60;;;;;;;;;;5073540;28;20478;-74
2022/12/12 13:34:07;;;;;;;77.87;20.13;;;;;;;;;;5073545;28;20451;-74
2022/12/12 13:36:35;;;;;;;76.20;19.27;;;;;;;;;;5073820;28;20811;-74
2022/12/12 13:39:04;;;;;;;74.43;19.00;;;;;;;;;;5072825;28;20542;-76
2022/12/12 13:41:46;;;;;;;79.90;21.87;;;;;;;;;;5073471;28;20481;-73
2022/12/12 13:44:28;;;;;;;78.47;21.03;;;;;;;;;;5073407;28;20448;-73
2022/12/12 13:46:56;;;;;;;78.20;22.20;;;;;;;;;;5073277;28;20784;-75
2022/12/12 13:49:29;;;;;;;77.43;20.83;;;;;;;;;;5072489;28;20462;-75
2022/12/12 13:52:11;;;;;;;75.57;20.10;;;;;;;;;;5073597;28;20440;-75
2022/12/12 13:54:47;;;;;;;75.03;19.53;;;;;;;;;;5073074;28;20456;-75
2022/12/12 13:57:15;;;;;;;75.30;18.63;;;;;;;;;;5069568;28;20448;-75
2022/12/12 13:59:57;;;;;;;74.80;18.20;;;;;;;;;;5065414;28;20658;-72
2022/12/12 14:02:29;;;;;;;73.53;16.80;;;;;;;;;;5072823;28;20451;-72
2022/12/12 14:05:08;;;;;;;81.67;27.40;;;;;;;;;;5073564;28;20574;-73
2022/12/12 14:07:35;;;;;;;72.43;17.30;;;;;;;;;;5072711;28;20459;-73
2022/12/12 14:10:15;;;;;;;74.27;17.17;;;;;;;;;;5072106;28;20471;-73
2022/12/12 14:12:42;;;;;;;76.20;17.80;;;;;;;;;;5072936;28;20443;-75
2022/12/12 14:15:20;;;;;;;75.80;17.30;;;;;;;;;;5072857;28;20509;-75
2022/12/12 14:17:54;;;;;;;74.90;16.60;;;;;;;;;;5072808;28;20451;-75
2022/12/12 14:20:25;;;;;;;72.40;16.63;;;;;;;;;;5072167;28;20590;-75
2022/12/12 14:23:11;;;;;;;74.40;16.60;;;;;;;;;;5072323;28;20451;-75
2022/12/12 14:25:39;;;;;;;76.20;17.83;;;;;;;;;;5072397;28;20593;-75
2022/12/12 14:28:18;;;;;;;74.47;17.70;;;;;;;;;;5072427;28;20470;-76
2022/12/12 14:30:47;;;;;;;74.17;16.23;;;;;;;;;;5071947;28;20910;-76
2022/12/12 14:33:33;;;;;;;75.23;15.90;;;;;;;;;;5072676;28;20448;-76
2022/12/12 14:36:05;;;;;;;74.97;15.83;;;;;;;;;;5072443;28;20440;-76
2022/12/12 14:38:37;;;;;;;73.13;15.37;;;;;;;;;;5071908;28;20528;-76
2022/12/12 14:41:07;;;;;;;74.93;14.63;;;;;;;;;;5072118;28;20844;-76
2022/12/12 14:43:35;;;;;;;75.63;14.97;;;;;;;;;;5072124;28;20469;-76
2022/12/12 14:46:03;;;;;;;74.20;15.40;;;;;;;;;;5071914;28;20494;-76
2022/12/12 14:48:30;;;;;;;74.67;16.27;;;;;;;;;;5071750;28;20458;-76